Time;durP1;ratioP1;P1;durP2;ratioP2;P2;SDS_P1;SDS_P2;PMS_P1;PMS_P2;Temp;Humidity;BMP_temperature;BMP_pressure;BME280_temperature;BME280_humidity;BME280_pressure;Samples;Min_cycle;Max_cycle;Signal;HPM_P1;HPM_P2
2022/06/03 00:00:27;;;;;;;5.65;3.78;;;15.00;99.90;;;;;;4132936;28;20189;-90
2022/06/03 00:02:43;;;;;;;9.73;3.83;;;15.00;99.90;;;;;;4149306;28;20189;-91
2022/06/03 00:04:52;;;;;;;9.77;3.15;;;14.90;99.90;;;;;;4125031;28;20239;-91
2022/06/03 00:07:13;;;;;;;5.20;3.42;;;14.80;99.90;;;;;;4149740;28;20176;-89
2022/06/03 00:09:27;;;;;;;6.75;3.67;;;14.70;99.90;;;;;;4149508;28;20223;-90
2022/06/03 00:11:32;;;;;;;4.75;3.65;;;14.70;99.90;;;;;;4166044;28;20672;-90
2022/06/03 00:14:10;;;;;;;8.25;3.90;;;14.60;99.90;;;;;;4149586;28;20173;-92
2022/06/03 00:16:25;;;;;;;7.10;3.87;;;14.60;99.90;;;;;;4149620;28;20176;-90
2022/06/03 00:18:32;;;;;;;5.55;3.67;;;14.60;99.90;;;;;;4149532;28;20661;-87
2022/06/03 00:20:54;;;;;;;4.90;3.45;;;14.50;99.90;;;;;;4166006;28;20180;-89
2022/06/03 00:23:32;;;;;;;6.85;4.13;;;14.50;99.90;;;;;;4165787;28;20185;-90
2022/06/03 00:26:01;;;;;;;5.07;3.58;;;14.50;99.90;;;;;;4149493;28;20191;-88
2022/06/03 00:28:26;;;;;;;4.53;3.25;;;14.40;99.90;;;;;;4165721;28;20225;-88
2022/06/03 00:30:33;;;;;;;6.45;3.75;;;14.40;99.90;;;;;;4165845;28;20180;-93
2022/06/03 00:32:55;;;;;;;5.18;3.83;;;14.40;99.90;;;;;;4165714;28;20175;-90
2022/06/03 00:35:03;;;;;;;7.03;3.92;;;14.40;99.90;;;;;;4165528;28;20184;-87
2022/06/03 00:37:38;;;;;;;5.23;3.67;;;14.40;99.90;;;;;;4149054;28;20215;-89
2022/06/03 00:39:59;;;;;;;6.55;3.75;;;14.40;99.90;;;;;;4165507;28;20647;-87
2022/06/03 00:42:22;;;;;;;7.38;3.58;;;14.30;99.90;;;;;;4149066;28;20212;-88
2022/06/03 00:44:32;;;;;;;9.80;3.70;;;14.40;99.90;;;;;;4149274;28;20185;-88
2022/06/03 00:46:51;;;;;;;8.38;4.03;;;14.40;99.90;;;;;;4165641;28;20274;-88
2022/06/03 00:49:33;;;;;;;4.63;3.38;;;14.40;99.90;;;;;;4165286;28;20608;-90
2022/06/03 00:51:51;;;;;;;5.40;3.67;;;14.30;99.90;;;;;;4145443;28;20184;-89
2022/06/03 00:54:25;;;;;;;11.10;3.70;;;14.30;99.90;;;;;;4165557;28;20168;-89
2022/06/03 00:57:02;;;;;;;6.22;4.28;;;14.30;99.90;;;;;;4149009;28;20180;-88
2022/06/03 00:59:15;;;;;;;5.35;3.80;;;14.20;99.90;;;;;;4149092;28;20187;-89
2022/06/03 01:01:29;;;;;;;6.07;3.77;;;14.20;99.90;;;;;;4165182;28;20175;-90
2022/06/03 01:03:35;;;;;;;7.00;3.97;;;14.20;99.90;;;;;;4165449;28;20183;-88
2022/06/03 01:06:09;;;;;;;5.78;4.25;;;14.10;99.90;;;;;;4148827;28;20256;-87
2022/06/03 01:08:33;;;;;;;5.47;3.70;;;14.10;99.90;;;;;;4148845;28;20208;-88
2022/06/03 01:11:01;;;;;;;4.87;3.90;;;14.10;99.90;;;;;;4147928;28;20189;-88
2022/06/03 01:13:28;;;;;;;10.20;4.00;;;14.10;99.90;;;;;;4148603;28;20723;-87
2022/06/03 01:15:35;;;;;;;6.03;3.70;;;14.20;99.90;;;;;;4139892;28;20192;-88
2022/06/03 01:18:04;;;;;;;6.93;3.85;;;14.20;99.90;;;;;;4165102;28;20572;-88
2022/06/03 01:20:41;;;;;;;4.83;3.50;;;14.20;99.90;;;;;;4165089;28;20202;-89
2022/06/03 01:23:40;;;;;;;4.07;3.40;;;14.10;99.90;;;;;;4124330;28;20671;-88
2022/06/03 01:25:55;;;;;;;6.00;4.33;;;14.20;99.90;;;;;;4088121;29;20214;-87
2022/06/03 01:28:32;;;;;;;6.63;3.90;;;14.20;99.90;;;;;;4126284;28;20212;-90
2022/06/03 01:30:38;;;;;;;6.03;3.77;;;14.30;99.90;;;;;;4164780;28;20247;-90
2022/06/03 01:32:52;;;;;;;6.70;4.27;;;14.30;99.90;;;;;;4164557;28;20231;-87
2022/06/03 01:34:55;;;;;;;5.72;3.55;;;14.20;99.90;;;;;;4164852;28;20172;-90
2022/06/03 01:37:27;;;;;;;6.45;3.70;;;14.10;99.90;;;;;;4164688;28;20202;-91
2022/06/03 01:39:49;;;;;;;7.07;3.53;;;14.10;99.90;;;;;;4164758;28;20184;-87
2022/06/03 01:42:17;;;;;;;9.87;3.70;;;14.00;99.90;;;;;;4164572;28;20190;-88
2022/06/03 01:44:33;;;;;;;4.45;3.88;;;14.00;99.90;;;;;;4164629;28;20180;-88
2022/06/03 01:46:44;;;;;;;6.87;4.13;;;13.90;99.90;;;;;;4164421;28;20180;-89
2022/06/03 01:48:57;;;;;;;7.53;3.90;;;13.90;99.90;;;;;;4148466;28;20177;-87
2022/06/03 01:51:34;;;;;;;6.63;3.93;;;13.80;99.90;;;;;;4148312;28;20188;-91
2022/06/03 01:53:50;;;;;;;10.97;4.43;;;13.80;99.90;;;;;;4148459;28;20180;-87
2022/06/03 01:56:25;;;;;;;6.00;3.80;;;13.80;99.90;;;;;;4164802;28;20678;-89
2022/06/03 01:59:06;;;;;;;10.23;4.33;;;13.80;99.90;;;;;;4163784;28;20583;-89
2022/06/03 02:01:17;;;;;;;8.23;4.13;;;13.80;99.90;;;;;;4164698;28;20566;-88
2022/06/03 02:03:34;;;;;;;7.67;4.20;;;13.70;99.90;;;;;;4148222;28;20177;-90
2022/06/03 02:05:51;;;;;;;7.70;4.27;;;13.70;99.90;;;;;;4164547;28;20192;-91
2022/06/03 02:08:17;;;;;;;8.27;4.10;;;13.70;99.90;;;;;;4164535;28;20188;-91
2022/06/03 02:10:26;;;;;;;5.67;3.90;;;13.70;99.90;;;;;;4121881;28;20795;-90
2022/06/03 02:12:50;;;;;;;5.47;3.63;;;13.70;99.90;;;;;;4164604;28;20265;-88
2022/06/03 02:15:22;;;;;;;12.27;4.23;;;13.70;99.90;;;;;;4163904;28;20179;-87
2022/06/03 02:17:33;;;;;;;7.53;4.17;;;13.70;99.90;;;;;;4164823;28;20192;-88
2022/06/03 02:20:21;;;;;;;5.87;3.67;;;13.70;99.90;;;;;;4148266;28;20173;-88
2022/06/03 02:22:44;;;;;;;8.43;4.13;;;13.70;99.90;;;;;;4138640;28;20799;-91
2022/06/03 02:25:38;;;;;;;8.57;4.20;;;13.60;99.90;;;;;;4151174;28;20275;-87
2022/06/03 02:27:45;;;;;;;6.77;4.30;;;13.60;99.90;;;;;;4118382;28;20243;-92
2022/06/03 02:30:25;;;;;;;5.60;4.77;;;13.50;99.90;;;;;;4142929;28;20628;-89
2022/06/03 02:32:43;;;;;;;8.07;4.23;;;13.50;99.90;;;;;;4167451;28;20183;-87
2022/06/03 02:35:10;;;;;;;8.37;4.27;;;13.40;99.90;;;;;;4151174;28;20199;-90
2022/06/03 02:37:33;;;;;;;6.70;4.07;;;13.40;99.90;;;;;;4167355;28;20271;-90
2022/06/03 02:39:56;;;;;;;5.87;3.87;;;13.40;99.90;;;;;;4167102;28;20188;-88
2022/06/03 02:42:22;;;;;;;5.40;4.17;;;13.50;99.90;;;;;;4167286;28;20180;-88
2022/06/03 02:44:47;;;;;;;8.43;4.13;;;13.50;99.90;;;;;;4167414;28;20191;-87
2022/06/03 02:47:18;;;;;;;6.87;4.30;;;13.50;99.90;;;;;;4167329;28;20556;-89
2022/06/03 02:49:37;;;;;;;6.87;4.30;;;13.60;99.90;;;;;;4167289;28;20219;-88
2022/06/03 02:52:05;;;;;;;6.60;4.27;;;13.60;99.90;;;;;;4167356;28;20176;-89
2022/06/03 02:54:50;;;;;;;6.67;4.50;;;13.60;99.90;;;;;;4167014;28;20270;-87
2022/06/03 02:57:28;;;;;;;7.57;4.70;;;13.70;99.90;;;;;;4150748;28;20176;-90
2022/06/03 02:59:47;;;;;;;7.43;4.40;;;13.70;99.90;;;;;;4166932;28;20690;-91
2022/06/03 03:02:01;;;;;;;7.97;4.50;;;13.60;99.90;;;;;;4150931;28;20565;-89
2022/06/03 03:04:35;;;;;;;7.77;4.80;;;13.50;99.90;;;;;;4167096;28;20644;-89
2022/06/03 03:07:10;;;;;;;6.43;4.83;;;13.40;99.90;;;;;;4167143;28;20645;-89
2022/06/03 03:09:14;;;;;;;11.63;4.70;;;13.40;99.90;;;;;;4101533;28;20300;-91
2022/06/03 03:11:22;;;;;;;7.07;4.60;;;13.40;99.90;;;;;;4145290;28;20271;-92
2022/06/03 03:13:47;;;;;;;11.17;5.03;;;13.40;99.90;;;;;;4166959;28;20632;-89
2022/06/03 03:16:06;;;;;;;9.93;4.90;;;13.30;99.90;;;;;;4166868;28;20184;-89
2022/06/03 03:18:10;;;;;;;9.37;4.70;;;13.30;99.90;;;;;;4166520;28;20254;-89
2022/06/03 03:20:25;;;;;;;8.30;5.33;;;13.20;99.90;;;;;;4150650;28;20239;-89
2022/06/03 03:23:01;;;;;;;11.87;5.20;;;13.20;99.90;;;;;;4150414;28;20185;-90
2022/06/03 03:25:08;;;;;;;10.23;4.93;;;13.10;99.90;;;;;;4150485;28;20180;-89
2022/06/03 03:27:23;;;;;;;8.60;5.17;;;13.10;99.90;;;;;;4166729;28;20302;-90
2022/06/03 03:29:48;;;;;;;7.50;5.00;;;13.10;99.90;;;;;;4150404;28;20299;-89
2022/06/03 03:32:10;;;;;;;9.23;5.07;;;13.00;99.90;;;;;;4140514;28;20192;-89
2022/06/03 03:34:22;;;;;;;8.03;5.00;;;13.00;99.90;;;;;;4166352;28;20208;-89
2022/06/03 03:36:48;;;;;;;10.00;5.07;;;13.00;99.90;;;;;;4166611;28;20191;-89
2022/06/03 03:38:52;;;;;;;6.93;4.97;;;13.00;99.90;;;;;;4166763;28;20176;-89
2022/06/03 03:40:59;;;;;;;7.10;5.60;;;13.00;99.90;;;;;;4166858;28;20200;-90
2022/06/03 03:43:18;;;;;;;6.63;5.10;;;13.00;99.90;;;;;;4150152;28;20177;-89
2022/06/03 03:45:37;;;;;;;7.83;5.33;;;13.00;99.90;;;;;;4150272;28;20176;-89
2022/06/03 03:48:08;;;;;;;12.10;5.10;;;13.00;99.90;;;;;;4166661;28;20236;-89
2022/06/03 03:50:36;;;;;;;8.53;5.30;;;13.10;99.90;;;;;;4166479;28;20290;-89
2022/06/03 03:52:46;;;;;;;9.27;5.60;;;13.20;99.90;;;;;;4166410;28;20173;-92
2022/06/03 03:55:22;;;;;;;7.67;4.90;;;13.30;99.90;;;;;;4149948;28;20181;-89
2022/06/03 03:57:25;;;;;;;6.57;4.63;;;13.30;99.90;;;;;;4152485;28;20204;-89
2022/06/03 03:59:39;;;;;;;6.27;4.57;;;13.30;99.90;;;;;;4149513;28;20236;-91
2022/06/03 04:02:16;;;;;;;6.93;5.03;;;13.40;99.90;;;;;;4166134;28;20671;-89
2022/06/03 04:04:30;;;;;;;9.67;5.10;;;13.40;99.90;;;;;;4165743;28;20184;-90
2022/06/03 04:06:58;;;;;;;8.77;5.23;;;13.50;99.90;;;;;;4165955;28;20164;-90
2022/06/03 04:09:13;;;;;;;7.00;5.13;;;13.50;99.90;;;;;;4182440;28;20203;-92
2022/06/03 04:12:12;;;;;;;8.83;4.90;;;13.60;99.90;;;;;;4182564;28;20179;-91
2022/06/03 04:14:40;;;;;;;10.37;4.97;;;13.60;99.90;;;;;;4100978;29;20187;-89
2022/06/03 04:17:06;;;;;;;8.23;5.07;;;13.60;99.90;;;;;;4150709;28;20258;-90
2022/06/03 04:19:29;;;;;;;9.23;4.97;;;13.60;99.90;;;;;;4138996;28;20184;-89
2022/06/03 04:21:46;;;;;;;8.57;5.17;;;13.50;99.90;;;;;;4149488;28;20235;-90
2022/06/03 04:24:19;;;;;;;13.67;5.17;;;13.50;99.90;;;;;;4182492;28;20179;-89
2022/06/03 04:26:43;;;;;;;8.33;5.27;;;13.50;99.90;;;;;;4149336;28;20181;-92
2022/06/03 04:29:06;;;;;;;8.27;5.30;;;13.50;99.90;;;;;;4165319;28;20235;-89
2022/06/03 04:31:42;;;;;;;8.03;5.23;;;13.50;99.90;;;;;;4182042;28;20686;-92
2022/06/03 04:34:04;;;;;;;7.50;4.87;;;13.50;99.90;;;;;;4149260;28;20173;-89
2022/06/03 04:36:32;;;;;;;13.77;5.50;;;13.50;99.90;;;;;;4166754;28;20168;-92
2022/06/03 04:38:36;;;;;;;9.63;5.40;;;13.50;99.90;;;;;;4149120;28;20609;-91
2022/06/03 04:40:55;;;;;;;7.83;5.03;;;13.60;99.90;;;;;;4165551;28;20658;-93
2022/06/03 04:43:29;;;;;;;6.80;5.00;;;13.70;99.90;;;;;;4165344;28;20209;-89
2022/06/03 04:45:47;;;;;;;10.77;5.60;;;13.70;99.90;;;;;;4149052;28;20608;-89
2022/06/03 04:48:13;;;;;;;8.63;5.40;;;13.70;99.90;;;;;;4165248;28;20195;-92
2022/06/03 04:50:47;;;;;;;14.47;5.70;;;13.60;99.90;;;;;;4166084;28;20239;-92
2022/06/03 04:53:06;;;;;;;8.10;5.27;;;13.60;99.90;;;;;;4148915;28;20231;-89
2022/06/03 04:55:45;;;;;;;12.30;5.80;;;13.50;99.90;;;;;;4166569;28;20202;-91
2022/06/03 04:58:07;;;;;;;7.20;5.50;;;13.50;99.90;;;;;;4165363;28;20270;-92
2022/06/03 05:00:32;;;;;;;9.20;5.47;;;13.50;99.90;;;;;;4152908;28;20188;-89
2022/06/03 05:02:54;;;;;;;6.03;5.23;;;13.60;99.90;;;;;;4154253;28;20748;-90
2022/06/03 05:05:13;;;;;;;12.80;5.27;;;13.60;99.90;;;;;;4154597;28;20287;-92
2022/06/03 05:07:36;;;;;;;7.50;5.30;;;13.60;99.90;;;;;;4171427;28;20223;-92
2022/06/03 05:09:55;;;;;;;14.48;5.65;;;13.80;99.90;;;;;;4171843;28;20596;-92
2022/06/03 05:12:23;;;;;;;10.27;5.57;;;13.90;99.90;;;;;;4154160;28;20286;-90
2022/06/03 05:14:50;;;;;;;11.03;5.80;;;14.20;99.90;;;;;;4154126;28;20189;-89
2022/06/03 05:17:14;;;;;;;10.93;6.30;;;14.30;99.90;;;;;;4159091;28;20540;-90
2022/06/03 05:19:42;;;;;;;8.20;5.30;;;14.40;99.90;;;;;;4188824;28;20233;-91
2022/06/03 05:22:05;;;;;;;6.90;5.13;;;14.30;99.90;;;;;;4167167;28;20637;-91
2022/06/03 05:24:17;;;;;;;7.13;5.22;;;14.40;99.90;;;;;;4165027;28;20180;-89
2022/06/03 05:26:37;;;;;;;9.98;5.28;;;14.40;99.90;;;;;;4148618;28;20185;-91
2022/06/03 05:29:16;;;;;;;7.18;5.20;;;14.70;99.90;;;;;;4180906;28;20225;-88
2022/06/03 05:31:41;;;;;;;9.88;5.68;;;14.70;99.90;;;;;;4144916;28;20694;-89
2022/06/03 05:34:01;;;;;;;7.10;4.95;;;14.80;99.90;;;;;;4148430;28;20549;-89
2022/06/03 05:36:20;;;;;;;7.90;5.05;;;14.80;99.90;;;;;;4164847;28;20210;-88
2022/06/03 05:38:45;;;;;;;10.60;5.40;;;15.00;99.90;;;;;;4181153;28;20199;-90
2022/06/03 05:44:20;;;;;;;7.53;4.88;;;15.10;99.90;;;;;;4165439;28;20165;-88
2022/06/03 05:46:33;;;;;;;8.55;5.30;;;15.30;99.90;;;;;;4140196;28;20238;-89
2022/06/03 05:48:53;;;;;;;6.57;5.28;;;15.30;99.90;;;;;;4164765;28;20191;-92
2022/06/03 05:51:18;;;;;;;8.18;5.10;;;15.20;99.90;;;;;;4148427;28;20290;-88
2022/06/03 05:53:44;;;;;;;13.32;4.97;;;15.30;99.90;;;;;;4164576;28;20172;-88
2022/06/03 05:56:03;;;;;;;8.40;4.90;;;15.40;99.90;;;;;;4166625;28;20227;-89
2022/06/03 05:58:37;;;;;;;8.07;5.40;;;15.40;99.90;;;;;;4170162;28;20199;-88
2022/06/03 06:00:50;;;;;;;12.82;5.40;;;15.50;99.90;;;;;;4153583;28;20172;-90
2022/06/03 06:03:18;;;;;;;9.07;5.00;;;15.50;99.90;;;;;;4170250;28;20171;-89
2022/06/03 06:05:36;;;;;;;7.75;5.50;;;15.50;99.90;;;;;;4153459;28;20684;-89
2022/06/03 06:08:15;;;;;;;9.20;5.22;;;15.60;99.90;;;;;;4169649;28;20196;-89
2022/06/03 06:10:45;;;;;;;7.72;5.40;;;15.90;99.90;;;;;;4150127;28;20223;-92
2022/06/03 06:13:01;;;;;;;6.07;4.90;;;16.00;99.90;;;;;;4153394;28;20177;-91
2022/06/03 06:15:26;;;;;;;10.40;5.10;;;16.00;99.90;;;;;;4153436;28;20609;-93
2022/06/03 06:17:55;;;;;;;12.65;4.93;;;16.20;99.90;;;;;;4153174;28;20204;-89
2022/06/03 06:20:15;;;;;;;11.73;4.90;;;16.10;99.90;;;;;;4186683;28;20732;-89
2022/06/03 06:22:33;;;;;;;6.80;4.82;;;16.30;99.90;;;;;;4170084;28;20172;-88
2022/06/03 06:24:34;;;;;;;7.80;4.53;;;16.70;99.90;;;;;;4170036;28;20226;-89
2022/06/03 06:27:03;;;;;;;7.88;5.18;;;16.80;99.90;;;;;;4170305;28;20599;-89
2022/06/03 06:29:15;;;;;;;10.18;4.82;;;16.70;99.90;;;;;;4169892;28;20200;-89
2022/06/03 06:31:28;;;;;;;5.93;4.63;;;16.60;99.90;;;;;;4153842;28;20313;-90
2022/06/03 06:33:58;;;;;;;10.57;4.72;;;16.70;99.90;;;;;;4170135;28;20180;-88
2022/06/03 06:36:16;;;;;;;8.80;4.85;;;16.90;99.90;;;;;;4169675;28;20179;-89
2022/06/03 06:39:13;;;;;;;13.13;4.68;;;17.00;99.90;;;;;;4186289;28;20194;-89
2022/06/03 06:41:32;;;;;;;14.73;4.22;;;17.00;99.90;;;;;;4120571;28;20793;-92
2022/06/03 06:46:13;;;;;;;7.35;4.50;;;17.20;99.90;;;;;;4116995;28;20233;-87
2022/06/03 06:48:23;;;;;;;7.95;4.40;;;17.40;99.90;;;;;;4153054;28;20205;-87
2022/06/03 06:50:28;;;;;;;6.95;4.63;;;17.60;99.90;;;;;;4169720;28;20227;-90
2022/06/03 06:52:46;;;;;;;8.07;4.40;;;17.70;99.90;;;;;;4171968;28;20168;-90
2022/06/03 06:55:05;;;;;;;10.75;4.50;;;17.90;99.90;;;;;;4156812;28;20180;-88
2022/06/03 06:57:21;;;;;;;13.77;4.53;;;17.90;99.90;;;;;;4173685;28;20537;-89
2022/06/03 06:59:56;;;;;;;8.30;4.55;;;18.00;99.90;;;;;;4157612;28;20239;-91
2022/06/03 07:02:10;;;;;;;9.05;4.85;;;18.10;99.90;;;;;;4151120;28;20191;-90
2022/06/03 07:04:17;;;;;;;6.65;4.18;;;18.00;99.90;;;;;;4158561;28;20173;-89
2022/06/03 07:06:26;;;;;;;6.68;4.15;;;18.30;99.90;;;;;;4172173;28;20233;-90
2022/06/03 07:08:53;;;;;;;7.32;4.38;;;18.20;99.90;;;;;;4150510;28;20644;-89
2022/06/03 07:11:05;;;;;;;9.48;3.78;;;18.30;99.90;;;;;;4150691;28;20193;-90
2022/06/03 07:13:26;;;;;;;8.27;3.88;;;18.80;99.90;;;;;;4150555;28;20179;-89
2022/06/03 07:15:38;;;;;;;7.63;4.07;;;20.00;99.90;;;;;;4150347;28;20275;-89
2022/06/03 07:20:36;;;;;;;17.85;3.95;;;21.90;99.90;;;;;;4167094;28;20262;-87
2022/06/03 07:22:46;;;;;;;6.97;3.58;;;22.40;99.90;;;;;;4149887;28;20283;-88
2022/06/03 07:25:04;;;;;;;7.35;3.05;;;23.00;99.90;;;;;;4166465;28;20203;-88
2022/06/03 07:27:42;;;;;;;10.48;4.30;;;23.10;99.90;;;;;;4150197;28;20187;-90
2022/06/03 07:29:54;;;;;;;6.68;3.63;;;23.30;99.90;;;;;;4129250;28;20755;-89
2022/06/03 07:32:02;;;;;;;10.60;3.60;;;23.50;99.90;;;;;;4150467;28;20649;-89
2022/06/03 07:34:28;;;;;;;11.77;3.45;;;23.60;99.90;;;;;;4150490;28;20165;-87
2022/06/03 07:36:54;;;;;;;8.60;3.42;;;23.40;99.90;;;;;;4156063;28;20184;-90
2022/06/03 07:39:00;;;;;;;7.07;3.60;;;22.80;99.90;;;;;;4150092;28;20180;-89
2022/06/03 07:41:14;;;;;;;7.05;3.05;;;22.80;99.90;;;;;;4166588;28;20215;-88
2022/06/03 07:43:40;;;;;;;13.35;3.72;;;22.80;99.90;;;;;;4166617;28;20604;-91
2022/06/03 07:45:48;;;;;;;5.03;3.50;;;23.40;99.90;;;;;;4166381;28;20221;-87
2022/06/03 07:47:50;;;;;;;11.50;3.40;;;24.10;99.90;;;;;;4149773;28;20533;-89
2022/06/03 07:50:00;;;;;;;13.70;3.55;;;24.70;99.90;;;;;;4150085;28;20207;-88
2022/06/03 07:52:27;;;;;;;7.30;2.65;;;25.20;99.90;;;;;;4165310;28;20176;-87
2022/06/03 07:54:36;;;;;;;9.82;3.25;;;25.30;99.90;;;;;;4149948;28;20187;-87
2022/06/03 07:56:38;;;;;;;9.07;3.55;;;25.60;99.90;;;;;;4149752;28;20227;-90
2022/06/03 07:58:39;;;;;;;4.00;2.55;;;25.90;99.90;;;;;;4149765;28;20192;-87
2022/06/03 08:00:40;;;;;;;8.32;3.05;;;25.80;99.90;;;;;;4149579;28;20173;-89
2022/06/03 08:02:41;;;;;;;7.18;2.92;;;26.00;99.90;;;;;;4166011;28;20635;-89
2022/06/03 08:04:43;;;;;;;6.88;2.67;;;25.70;99.90;;;;;;4166566;28;20278;-88
2022/06/03 08:11:34;;;;;;;7.15;2.90;;;26.00;99.90;;;;;;4182086;28;20617;-88
2022/06/03 08:13:41;;;;;;;8.77;2.72;;;26.70;99.90;;;;;;4165264;28;20183;-88
2022/06/03 08:15:51;;;;;;;5.97;2.40;;;26.40;99.90;;;;;;4165573;28;20176;-88
2022/06/03 08:17:51;;;;;;;10.63;2.60;;;26.40;99.90;;;;;;4166040;28;20198;-87
2022/06/03 08:19:54;;;;;;;5.55;2.25;;;27.00;99.90;;;;;;4165627;28;20342;-87
2022/06/03 08:21:58;;;;;;;6.43;2.20;;;27.40;99.90;;;;;;4149658;28;20284;-89
2022/06/03 08:24:01;;;;;;;5.90;1.83;;;27.60;99.90;;;;;;4149683;28;20193;-88
2022/06/03 08:26:08;;;;;;;7.18;2.08;;;27.40;99.90;;;;;;4167378;28;20176;-88
2022/06/03 08:28:13;;;;;;;6.72;2.30;;;27.70;99.90;;;;;;4173666;28;20199;-88
2022/06/03 08:30:20;;;;;;;6.82;2.20;;;28.10;99.90;;;;;;4151275;28;20209;-91
2022/06/03 08:32:26;;;;;;;9.32;2.67;;;27.80;99.90;;;;;;4165882;28;20165;-88
2022/06/03 08:34:33;;;;;;;3.50;2.10;;;28.20;99.90;;;;;;4165597;28;20330;-88
2022/06/03 08:36:37;;;;;;;11.35;2.45;;;28.40;99.90;;;;;;4149305;28;20208;-86
2022/06/03 08:38:51;;;;;;;6.82;2.35;;;27.90;99.90;;;;;;4165439;28;20615;-88
2022/06/03 08:41:18;;;;;;;6.00;2.50;;;27.20;99.90;;;;;;4165489;28;20671;-87
2022/06/03 08:43:34;;;;;;;12.65;2.70;;;26.60;99.90;;;;;;4149020;28;20184;-88
2022/06/03 08:45:45;;;;;;;6.22;2.35;;;26.50;99.90;;;;;;4165488;28;20180;-88
2022/06/03 08:47:54;;;;;;;5.88;2.33;;;26.50;99.90;;;;;;4165433;28;20199;-88
2022/06/03 08:50:00;;;;;;;12.48;2.20;;;26.60;99.90;;;;;;4165217;28;20222;-90
2022/06/03 08:52:08;;;;;;;4.13;1.95;;;26.90;99.90;;;;;;4149238;28;20176;-90
2022/06/03 08:54:30;;;;;;;5.80;1.90;;;27.60;99.90;;;;;;4149052;28;20181;-90
2022/06/03 08:56:44;;;;;;;9.30;2.10;;;27.20;99.90;;;;;;4149378;28;20180;-88
2022/06/03 08:58:55;;;;;;;12.15;2.20;;;27.40;99.90;;;;;;4165167;28;20682;-88
2022/06/03 09:01:08;;;;;;;4.28;2.10;;;27.40;99.90;;;;;;4165179;28;20560;-89
2022/06/03 09:03:12;;;;;;;5.53;2.20;;;27.50;99.90;;;;;;4148844;28;20200;-88
2022/06/03 09:05:25;;;;;;;8.15;1.95;;;27.80;99.90;;;;;;4165366;28;20184;-90
2022/06/03 09:07:48;;;;;;;4.95;2.00;;;28.10;99.90;;;;;;4165193;28;20203;-88
2022/06/03 09:10:02;;;;;;;8.52;2.03;;;27.60;99.90;;;;;;4148905;28;20209;-90
2022/06/03 09:12:18;;;;;;;6.20;2.00;;;28.20;99.90;;;;;;4148741;28;20179;-90
2022/06/03 09:14:21;;;;;;;6.15;1.75;;;28.00;99.90;;;;;;4148696;28;20181;-88
2022/06/03 09:16:25;;;;;;;4.88;1.70;;;27.90;99.90;;;;;;4165157;28;20703;-88
2022/06/03 09:18:33;;;;;;;11.30;1.70;;;28.20;99.90;;;;;;4165113;28;20211;-89
2022/06/03 09:20:44;;;;;;;11.20;2.20;;;28.30;99.90;;;;;;4165069;28;20182;-90
2022/06/03 09:22:46;;;;;;;12.02;1.80;;;26.90;99.90;;;;;;4148597;28;20645;-90
2022/06/03 09:24:48;;;;;;;3.08;1.40;;;27.30;99.90;;;;;;4164935;28;20309;-89
2022/06/03 09:27:10;;;;;;;4.22;1.40;;;27.40;99.90;;;;;;4164851;28;20235;-90
2022/06/03 09:29:13;;;;;;;5.22;1.60;;;27.30;99.90;;;;;;4148380;28;20212;-90
2022/06/03 09:31:14;;;;;;;8.93;1.88;;;26.30;99.90;;;;;;4147881;28;20181;-89
2022/06/03 09:33:19;;;;;;;4.93;1.42;;;26.50;99.90;;;;;;4164875;28;20210;-89
2022/06/03 09:35:21;;;;;;;8.50;1.40;;;26.70;99.90;;;;;;4164932;28;20164;-90
2022/06/03 09:37:33;;;;;;;4.65;1.40;;;27.50;99.90;;;;;;4148536;28;20272;-89
2022/06/03 09:39:35;;;;;;;6.75;1.55;;;27.50;99.90;;;;;;4164830;28;20795;-90
2022/06/03 09:41:41;;;;;;;3.42;1.27;;;27.40;99.90;;;;;;4164658;28;20239;-89
2022/06/03 09:43:47;;;;;;;3.88;1.23;;;27.40;99.90;;;;;;4164568;28;20165;-90
2022/06/03 09:45:51;;;;;;;4.03;1.60;;;26.90;99.90;;;;;;4164729;28;20239;-91
2022/06/03 09:47:52;;;;;;;6.20;1.60;;;26.40;99.90;;;;;;4164696;28;20746;-89
2022/06/03 09:49:53;;;;;;;8.60;1.48;;;26.70;99.90;;;;;;4164967;28;20572;-89
2022/06/03 09:52:02;;;;;;;7.85;2.00;;;26.90;99.90;;;;;;4148759;28;20226;-89
2022/06/03 09:54:03;;;;;;;5.15;1.75;;;27.50;99.90;;;;;;4148528;28;20176;-89
2022/06/03 09:56:07;;;;;;;7.07;1.60;;;27.70;99.90;;;;;;4148642;28;20230;-92
2022/06/03 09:58:12;;;;;;;2.97;1.17;;;27.30;99.90;;;;;;4164693;28;20357;-92
2022/06/03 10:00:22;;;;;;;4.65;1.10;;;27.50;99.90;;;;;;4148150;28;20173;-89
2022/06/03 10:02:27;;;;;;;5.15;1.38;;;27.70;99.90;;;;;;4164730;28;20179;-90
2022/06/03 10:04:27;;;;;;;4.10;0.95;;;27.70;99.90;;;;;;4180981;28;20183;-90
2022/06/03 10:06:44;;;;;;;2.20;1.02;;;27.50;99.90;;;;;;4164561;28;20656;-91
2022/06/03 10:13:24;;;;;;;2.75;1.27;;;27.20;99.90;;;;;;4164370;28;20188;-89
2022/06/03 10:15:38;;;;;;;2.40;1.08;;;27.50;99.90;;;;;;4148038;28;20187;-92
2022/06/03 10:17:38;;;;;;;4.22;1.10;;;27.70;99.90;;;;;;4148074;28;20204;-91
2022/06/03 10:19:39;;;;;;;2.58;1.17;;;26.50;99.90;;;;;;4164483;28;20170;-90
2022/06/03 10:21:50;;;;;;;2.85;1.10;;;26.30;99.90;;;;;;4148068;28;20680;-90
2022/06/03 10:24:01;;;;;;;1.52;0.90;;;26.60;99.90;;;;;;4164602;28;20176;-92
2022/06/03 10:26:04;;;;;;;3.30;1.20;;;26.40;99.90;;;;;;4148181;28;20177;-91
2022/06/03 10:28:07;;;;;;;7.03;1.30;;;25.30;99.90;;;;;;4164210;28;20184;-91
2022/06/03 10:30:08;;;;;;;2.85;1.20;;;25.00;99.90;;;;;;4147906;28;20212;-91
2022/06/03 10:32:10;;;;;;;3.40;1.08;;;25.40;99.90;;;;;;4147992;28;20651;-90
2022/06/03 10:34:15;;;;;;;2.60;0.90;;;25.60;99.90;;;;;;4148140;28;20172;-89
2022/06/03 10:36:16;;;;;;;5.93;1.30;;;25.90;99.90;;;;;;4164754;28;20173;-91
2022/06/03 10:38:19;;;;;;;2.95;1.30;;;26.40;99.90;;;;;;4164573;28;20552;-89
2022/06/03 10:40:24;;;;;;;3.28;1.08;;;26.40;99.90;;;;;;4164384;28;20176;-90
2022/06/03 10:42:25;;;;;;;3.90;0.95;;;26.00;99.90;;;;;;4166408;28;20266;-89
2022/06/03 10:44:29;;;;;;;3.30;1.20;;;26.10;99.90;;;;;;4151473;28;20208;-89
2022/06/03 10:46:30;;;;;;;3.55;0.93;;;25.90;99.90;;;;;;4151190;28;20169;-90
2022/06/03 10:48:32;;;;;;;2.75;0.98;;;25.80;99.90;;;;;;4167327;28;20223;-91
2022/06/03 10:50:35;;;;;;;3.35;1.20;;;25.80;99.90;;;;;;4150989;28;20581;-90
2022/06/03 11:02:06;;;;;;;1.67;0.77;;;25.70;99.90;;;;;;4167132;28;20176;-90
2022/06/03 11:04:07;;;;;;;3.50;0.98;;;25.50;99.90;;;;;;4150838;28;20185;-90
2022/06/03 11:06:14;;;;;;;3.10;1.05;;;25.50;99.90;;;;;;4183603;28;20172;-89
2022/06/03 11:08:14;;;;;;;3.47;0.80;;;25.50;99.90;;;;;;4166998;28;20269;-91
2022/06/03 11:10:16;;;;;;;1.08;0.80;;;25.40;99.90;;;;;;4167167;28;20764;-91
2022/06/03 11:12:23;;;;;;;1.50;0.98;;;25.40;99.90;;;;;;4167200;28;20171;-90
2022/06/03 11:14:38;;;;;;;4.50;0.90;;;25.20;99.90;;;;;;4167108;28;20731;-91
2022/06/03 11:16:39;;;;;;;2.22;1.20;;;25.20;99.90;;;;;;4150598;28;20584;-90
2022/06/03 11:18:41;;;;;;;3.00;1.05;;;25.80;99.90;;;;;;4183395;28;20199;-91
2022/06/03 11:20:43;;;;;;;3.40;1.00;;;25.70;99.90;;;;;;4150168;28;20232;-91
2022/06/03 11:22:45;;;;;;;3.05;0.80;;;25.70;99.90;;;;;;4166617;28;20174;-90
2022/06/03 11:24:53;;;;;;;1.77;0.80;;;25.80;99.90;;;;;;4166974;28;20860;-90
2022/06/03 11:26:55;;;;;;;2.65;1.23;;;25.60;99.90;;;;;;4150379;28;20172;-91
2022/06/03 11:29:03;;;;;;;4.72;1.08;;;25.60;99.90;;;;;;4150521;28;20184;-91
2022/06/03 11:31:24;;;;;;;2.15;1.10;;;25.70;99.90;;;;;;4167034;28;20172;-92
2022/06/03 11:33:31;;;;;;;3.28;1.00;;;25.40;99.90;;;;;;4166505;28;20212;-90
2022/06/03 11:35:39;;;;;;;2.47;1.02;;;25.30;99.90;;;;;;4166672;28;20172;-90
2022/06/03 11:37:44;;;;;;;6.07;0.90;;;25.50;99.90;;;;;;4150203;28;20204;-91
2022/06/03 11:39:56;;;;;;;2.22;0.88;;;25.60;99.90;;;;;;4150273;28;20549;-91
2022/06/03 11:42:07;;;;;;;1.75;1.05;;;25.70;99.90;;;;;;4166752;28;20180;-91
2022/06/03 11:44:19;;;;;;;1.13;0.90;;;25.50;99.90;;;;;;4150214;28;20319;-91
2022/06/03 11:46:31;;;;;;;3.90;1.10;;;25.90;99.90;;;;;;4149952;28;20176;-90
2022/06/03 11:48:41;;;;;;;6.90;1.23;;;26.20;99.90;;;;;;4161987;28;20202;-93
2022/06/03 11:50:42;;;;;;;3.25;0.88;;;26.50;99.90;;;;;;4166350;28;20726;-92
2022/06/03 11:52:43;;;;;;;1.77;0.80;;;26.80;99.90;;;;;;4166286;28;20271;-90
2022/06/03 11:54:45;;;;;;;1.55;0.77;;;27.00;99.90;;;;;;4165736;28;20533;-91
2022/06/03 11:56:46;;;;;;;3.33;0.85;;;27.00;99.90;;;;;;4166285;28;20183;-91
2022/06/03 11:59:14;;;;;;;3.67;0.88;;;27.20;99.90;;;;;;4166439;28;20172;-90
2022/06/03 12:01:29;;;;;;;3.10;0.90;;;27.30;99.90;;;;;;4166317;28;20234;-90
2022/06/03 12:03:31;;;;;;;1.50;1.00;;;27.20;99.90;;;;;;4149993;28;20179;-91
2022/06/03 12:05:40;;;;;;;1.67;0.90;;;27.50;99.90;;;;;;4149643;28;20303;-90
2022/06/03 12:08:31;;;;;;;3.35;0.70;;;27.30;99.90;;;;;;4166133;28;20184;-90
2022/06/03 12:10:48;;;;;;;3.85;0.80;;;26.80;99.90;;;;;;4117127;28;20741;-91
2022/06/03 12:13:17;;;;;;;5.20;1.00;;;26.80;99.90;;;;;;4116825;28;20623;-92
2022/06/03 12:15:30;;;;;;;1.48;0.90;;;26.60;99.90;;;;;;4137294;28;20317;-91